Time;durP1;ratioP1;P1;durP2;ratioP2;P2;SDS_P1;SDS_P2;PMS_P1;PMS_P2;Temp;Humidity;BMP_temperature;BMP_pressure;BME280_temperature;BME280_humidity;BME280_pressure;Samples;Min_cycle;Max_cycle;Signal;HPM_P1;HPM_P2
2022/08/04 00:00:02;;;;;;;3.10;2.45;;;22.80;96.40;;;;;;5050860;28;20127;-75
2022/08/04 00:02:45;;;;;;;5.57;2.63;;;22.70;96.60;;;;;;5051002;28;20025;-76
2022/08/04 00:05:45;;;;;;;4.13;2.83;;;22.80;96.50;;;;;;5050362;28;20036;-76
2022/08/04 00:08:22;;;;;;;5.35;3.00;;;22.70;96.40;;;;;;5025672;28;20033;-76
2022/08/04 00:10:55;;;;;;;4.32;2.85;;;22.70;96.50;;;;;;5050197;28;20017;-76
2022/08/04 00:13:25;;;;;;;4.20;2.80;;;22.70;97.20;;;;;;5049931;28;20029;-76
2022/08/04 00:15:52;;;;;;;7.15;2.42;;;22.60;97.40;;;;;;5032863;28;20747;-76
2022/08/04 00:18:24;;;;;;;3.83;2.70;;;22.60;97.20;;;;;;5049520;28;20037;-76
2022/08/04 00:20:53;;;;;;;4.03;2.97;;;23.00;97.40;;;;;;5038246;28;20029;-76
2022/08/04 00:23:19;;;;;;;3.33;2.83;;;22.70;97.30;;;;;;5049790;28;20052;-76
2022/08/04 00:25:45;;;;;;;5.28;2.80;;;23.70;97.20;;;;;;5036404;28;20032;-76
2022/08/04 00:28:12;;;;;;;8.85;3.53;;;22.60;97.00;;;;;;5032249;28;20021;-75
2022/08/04 00:30:40;;;;;;;6.07;3.50;;;22.70;97.30;;;;;;5049965;28;20146;-76
2022/08/04 00:33:07;;;;;;;6.40;2.95;;;22.50;97.30;;;;;;5044583;28;20083;-76
2022/08/04 00:35:32;;;;;;;6.07;3.50;;;22.70;97.10;;;;;;5042675;28;20039;-76
2022/08/04 00:37:59;;;;;;;4.22;3.08;;;22.70;97.00;;;;;;5049785;28;20017;-76
2022/08/04 00:40:31;;;;;;;5.45;3.13;;;22.50;97.10;;;;;;5049817;28;20129;-76
2022/08/04 00:43:16;;;;;;;4.57;3.58;;;22.60;97.40;;;;;;5047765;28;20017;-76
2022/08/04 00:45:54;;;;;;;5.40;4.00;;;22.70;96.70;;;;;;5040969;28;20033;-76
2022/08/04 00:49:12;;;;;;;5.60;4.10;;;22.60;96.40;;;;;;5036056;28;20204;-76
2022/08/04 00:51:48;;;;;;;8.35;3.67;;;22.60;96.90;;;;;;5025592;28;20025;-76
2022/08/04 00:54:22;;;;;;;5.40;3.88;;;22.40;97.60;;;;;;5049547;28;20485;-76
2022/08/04 00:57:00;;;;;;;5.13;3.75;;;22.50;97.70;;;;;;5049784;28;20130;-76
2022/08/04 00:59:41;;;;;;;7.03;3.42;;;22.50;97.80;;;;;;5031928;28;20036;-76
2022/08/04 01:02:27;;;;;;;6.80;4.13;;;22.40;97.20;;;;;;5037440;28;20037;-76
2022/08/04 01:05:01;;;;;;;6.72;3.88;;;22.40;97.10;;;;;;5049315;28;20597;-76
2022/08/04 01:07:47;;;;;;;8.30;3.92;;;22.50;97.10;;;;;;5049417;28;20070;-76
2022/08/04 01:10:47;;;;;;;5.50;3.38;;;22.40;97.90;;;;;;5048863;28;20033;-76
2022/08/04 01:13:37;;;;;;;6.25;3.72;;;22.40;97.20;;;;;;5044455;28;20025;-76
2022/08/04 01:16:06;;;;;;;5.13;2.83;;;22.40;97.20;;;;;;5049747;28;20440;-76
2022/08/04 01:18:59;;;;;;;7.13;4.88;;;22.40;97.80;;;;;;5048378;28;20013;-76
2022/08/04 01:21:27;;;;;;;8.23;3.50;;;22.40;97.30;;;;;;5041051;28;20036;-76
2022/08/04 01:23:56;;;;;;;6.50;3.83;;;22.40;96.90;;;;;;5048743;28;20040;-76
2022/08/04 01:26:42;;;;;;;8.23;4.03;;;22.40;97.00;;;;;;5048558;28;20047;-75
2022/08/04 01:29:10;;;;;;;9.18;4.47;;;22.30;98.30;;;;;;5047799;28;20049;-76
2022/08/04 01:32:01;;;;;;;4.35;3.03;;;22.30;98.00;;;;;;5044199;28;20103;-76
2022/08/04 01:34:35;;;;;;;3.35;3.08;;;22.30;97.50;;;;;;5049392;28;20100;-76
2022/08/04 01:37:14;;;;;;;6.43;3.22;;;22.30;98.30;;;;;;5049271;28;20028;-76
2022/08/04 01:39:48;;;;;;;4.07;3.00;;;22.30;98.30;;;;;;5035554;28;20072;-76
2022/08/04 01:42:18;;;;;;;7.35;4.53;;;22.30;98.30;;;;;;5049355;28;20404;-76
2022/08/04 01:44:47;;;;;;;8.57;5.13;;;22.20;98.20;;;;;;5049296;28;20337;-76
2022/08/04 01:47:14;;;;;;;6.78;3.65;;;22.70;98.40;;;;;;5049431;28;20017;-76
2022/08/04 01:49:43;;;;;;;7.88;3.60;;;22.10;98.20;;;;;;5048377;28;20013;-76
2022/08/04 01:52:09;;;;;;;10.60;3.97;;;22.30;98.20;;;;;;5049549;28;20731;-76
2022/08/04 01:54:38;;;;;;;4.95;3.92;;;22.10;98.10;;;;;;5049043;28;20025;-76
2022/08/04 01:57:05;;;;;;;7.72;4.13;;;22.70;98.50;;;;;;5049308;28;20029;-75
2022/08/04 01:59:33;;;;;;;6.30;3.83;;;20.50;98.00;;;;;;5048428;28;20032;-76
2022/08/04 02:01:58;;;;;;;4.80;3.40;;;21.90;98.20;;;;;;5035446;28;20577;-76
2022/08/04 02:04:23;;;;;;;5.90;3.60;;;22.00;98.20;;;;;;5047942;28;20041;-76
2022/08/04 02:06:54;;;;;;;8.63;4.07;;;22.00;98.20;;;;;;5048994;28;20032;-76
2022/08/04 02:09:37;;;;;;;8.00;4.03;;;23.80;99.10;;;;;;5042148;28;20378;-76
2022/08/04 02:12:14;;;;;;;6.63;3.92;;;22.00;98.80;;;;;;5049134;28;20104;-76
2022/08/04 02:15:26;;;;;;;6.13;4.05;;;20.10;98.10;;;;;;5048895;28;20033;-76
2022/08/04 02:18:02;;;;;;;10.45;4.07;;;22.00;98.10;;;;;;4959756;28;20039;-76
2022/08/04 02:20:29;;;;;;;9.30;3.65;;;21.90;99.00;;;;;;4967438;28;20031;-76
2022/08/04 02:22:59;;;;;;;4.03;3.55;;;21.90;98.70;;;;;;4968108;28;20074;-76
2022/08/04 02:25:27;;;;;;;3.92;2.90;;;21.80;98.80;;;;;;4967945;28;20136;-76
2022/08/04 02:28:10;;;;;;;5.05;4.28;;;21.80;98.70;;;;;;4967962;28;20081;-75
2022/08/04 02:31:16;;;;;;;5.03;3.33;;;21.80;98.30;;;;;;4967699;28;20078;-76
2022/08/04 02:33:45;;;;;;;6.70;3.70;;;21.90;98.30;;;;;;4929151;29;20487;-76
2022/08/04 02:36:22;;;;;;;6.03;3.22;;;21.80;98.90;;;;;;4929426;29;20047;-75
2022/08/04 02:39:02;;;;;;;4.75;3.10;;;21.80;99.10;;;;;;4929601;29;20040;-76
2022/08/04 02:41:29;;;;;;;4.32;3.03;;;21.70;99.00;;;;;;4931937;29;20497;-76
2022/08/04 02:43:57;;;;;;;9.93;4.32;;;21.60;98.70;;;;;;4933151;29;20040;-76
2022/08/04 02:46:24;;;;;;;6.70;3.28;;;21.60;98.80;;;;;;4933111;29;20076;-76
2022/08/04 02:48:52;;;;;;;5.55;3.13;;;21.90;98.80;;;;;;4932732;29;20027;-76
2022/08/04 02:51:28;;;;;;;3.80;2.47;;;21.70;98.70;;;;;;4932731;29;20035;-76
2022/08/04 02:53:56;;;;;;;5.75;3.10;;;21.80;98.00;;;;;;4972531;28;20034;-76
2022/08/04 02:56:23;;;;;;;8.43;3.50;;;21.70;98.70;;;;;;4990191;28;20144;-76
2022/08/04 02:58:55;;;;;;;6.93;3.72;;;21.80;98.80;;;;;;4990773;28;20023;-76
2022/08/04 03:01:22;;;;;;;6.13;3.17;;;21.50;99.10;;;;;;4974241;28;20491;-76
2022/08/04 03:04:05;;;;;;;4.47;3.47;;;21.50;99.00;;;;;;4990329;28;20492;-76
2022/08/04 03:06:52;;;;;;;3.58;2.75;;;21.50;99.40;;;;;;4989791;28;20069;-76
2022/08/04 03:09:36;;;;;;;5.40;2.75;;;21.40;98.70;;;;;;4991889;28;20455;-76
2022/08/04 03:12:20;;;;;;;;;;;22.70;99.10;;;;;;5052085;28;20013;-76
2022/08/04 03:15:12;;;;;;;4.35;2.80;;;21.30;98.80;;;;;;5051840;28;19919;-76
2022/08/04 03:18:19;;;;;;;5.28;3.03;;;21.30;98.80;;;;;;5041162;28;20036;-76
2022/08/04 03:21:27;;;;;;;5.28;2.80;;;21.20;98.90;;;;;;5039022;28;20032;-76
2022/08/04 03:24:13;;;;;;;7.43;3.40;;;21.20;99.70;;;;;;5001139;28;20029;-76
2022/08/04 03:26:39;;;;;;;7.28;3.67;;;21.10;98.90;;;;;;5051935;28;20029;-76
2022/08/04 03:29:39;;;;;;;5.43;2.70;;;21.10;99.40;;;;;;5033778;28;20080;-75
2022/08/04 03:32:59;;;;;;;4.93;2.80;;;21.10;99.10;;;;;;5046673;28;20029;-76
2022/08/04 03:36:01;;;;;;;4.07;2.67;;;21.00;99.30;;;;;;4970629;28;20030;-75
2022/08/04 03:39:04;;;;;;;4.53;2.80;;;21.00;99.40;;;;;;4977487;28;20076;-75
2022/08/04 03:41:35;;;;;;;4.85;2.95;;;21.00;99.50;;;;;;4970605;28;20564;-75
2022/08/04 03:44:31;;;;;;;6.07;3.58;;;20.90;99.00;;;;;;4970814;28;20058;-76
2022/08/04 03:47:15;;;;;;;5.20;2.78;;;20.80;99.50;;;;;;4970285;28;20056;-75
2022/08/04 03:49:49;;;;;;;;;;;21.50;99.90;;;;;;4970701;28;20041;-75
2022/08/04 03:56:01;;;;;;;6.40;2.63;;;20.80;99.70;;;;;;4970349;28;20204;-76
2022/08/04 03:58:53;;;;;;;5.40;3.38;;;20.80;99.90;;;;;;4970242;28;20034;-76
2022/08/04 04:01:21;;;;;;;5.90;3.53;;;20.80;99.90;;;;;;4969827;28;20027;-76
2022/08/04 04:03:53;;;;;;;3.80;3.22;;;20.80;99.50;;;;;;4977337;28;20050;-76
2022/08/04 04:06:19;;;;;;;4.30;3.78;;;21.60;99.90;;;;;;4982800;28;20073;-76
2022/08/04 04:08:59;;;;;;;3.63;3.30;;;20.70;99.90;;;;;;4982939;28;20064;-76
2022/08/04 04:11:50;;;;;;;4.88;3.88;;;20.70;99.90;;;;;;5044534;28;20099;-76
2022/08/04 04:14:33;;;;;;;6.13;3.95;;;20.60;99.90;;;;;;5051023;28;20441;-76
2022/08/04 04:17:19;;;;;;;6.07;3.15;;;20.60;99.90;;;;;;5051154;28;20025;-76
2022/08/04 04:19:53;;;;;;;4.90;3.00;;;20.50;99.90;;;;;;5032993;28;20400;-75
2022/08/04 04:22:27;;;;;;;4.57;3.67;;;20.50;99.90;;;;;;5050919;28;20478;-76
2022/08/04 04:25:11;;;;;;;4.43;3.30;;;20.40;99.90;;;;;;5050924;28;20075;-76
2022/08/04 04:27:46;;;;;;;5.40;3.83;;;20.50;99.90;;;;;;5038553;28;20021;-76
2022/08/04 04:30:39;;;;;;;4.93;3.78;;;20.60;99.90;;;;;;5049797;28;20502;-76
2022/08/04 04:33:36;;;;;;;6.00;4.15;;;20.60;99.90;;;;;;5051097;28;20056;-76
2022/08/04 04:36:11;;;;;;;4.78;3.78;;;20.60;99.90;;;;;;5028379;28;20026;-75
2022/08/04 04:39:05;;;;;;;7.20;4.05;;;20.20;99.90;;;;;;5050667;28;20029;-76
2022/08/04 04:41:50;;;;;;;5.35;3.55;;;20.60;99.90;;;;;;5036511;28;20508;-76
2022/08/04 04:44:34;;;;;;;5.63;3.15;;;20.60;99.90;;;;;;5049638;28;20117;-76
2022/08/04 04:47:13;;;;;;;8.95;3.80;;;20.60;99.90;;;;;;5050497;28;20025;-75
2022/08/04 04:49:53;;;;;;;7.55;3.60;;;20.70;99.90;;;;;;5049838;28;20375;-75
2022/08/04 04:52:40;;;;;;;5.88;3.55;;;20.80;99.90;;;;;;5049827;28;20496;-75
2022/08/04 04:55:23;;;;;;;10.45;3.03;;;20.70;99.90;;;;;;5050222;28;20376;-75
2022/08/04 04:57:55;;;;;;;7.03;3.42;;;20.80;99.90;;;;;;5047816;28;20017;-75
2022/08/04 05:00:25;;;;;;;5.05;3.70;;;20.80;99.90;;;;;;5049247;28;20033;-75
2022/08/04 05:03:17;;;;;;;5.78;4.05;;;21.50;99.90;;;;;;5049230;28;20033;-76
2022/08/04 05:06:18;;;;;;;7.25;3.88;;;21.00;99.90;;;;;;5031121;28;20094;-75
2022/08/04 05:09:24;;;;;;;4.65;3.33;;;21.10;99.90;;;;;;5049569;28;20688;-76
2022/08/04 05:12:32;;;;;;;5.85;4.70;;;21.10;99.90;;;;;;4947865;29;20043;-75
2022/08/04 05:15:00;;;;;;;5.43;4.32;;;21.10;99.90;;;;;;4949280;29;20436;-76
2022/08/04 05:17:37;;;;;;;7.60;4.03;;;21.30;99.90;;;;;;4948170;29;20039;-76
2022/08/04 05:20:24;;;;;;;7.35;5.03;;;21.40;99.90;;;;;;4949588;29;20031;-77
2022/08/04 05:22:58;;;;;;;6.60;4.15;;;21.50;99.90;;;;;;4949468;29;20043;-75
2022/08/04 05:25:36;;;;;;;4.68;4.03;;;21.50;99.90;;;;;;4949188;28;20047;-76
2022/08/04 05:28:08;;;;;;;8.15;4.30;;;21.40;99.90;;;;;;4949003;29;20038;-76
2022/08/04 05:30:48;;;;;;;7.25;4.22;;;22.50;99.90;;;;;;4948965;29;20047;-77
2022/08/04 05:33:48;;;;;;;8.52;4.60;;;21.90;99.90;;;;;;4938105;28;20079;-77
2022/08/04 05:36:20;;;;;;;4.40;3.95;;;22.10;99.10;;;;;;4919338;29;20062;-77
2022/08/04 05:38:51;;;;;;;8.75;5.38;;;22.30;99.60;;;;;;4948673;29;20034;-78
2022/08/04 05:41:18;;;;;;;14.52;5.70;;;22.20;99.40;;;;;;4949024;29;20492;-77
2022/08/04 05:43:44;;;;;;;7.57;5.22;;;22.50;99.10;;;;;;4948467;29;20035;-77
2022/08/04 05:46:12;;;;;;;7.40;4.90;;;22.50;98.80;;;;;;4949000;28;20472;-77
2022/08/04 05:48:39;;;;;;;6.88;4.32;;;22.70;98.80;;;;;;4989896;28;20029;-77
2022/08/04 05:51:07;;;;;;;10.98;5.20;;;22.60;98.60;;;;;;5031522;28;20029;-77
2022/08/04 05:53:34;;;;;;;7.47;4.72;;;22.70;98.50;;;;;;5048758;28;20436;-78
2022/08/04 05:56:01;;;;;;;6.95;5.30;;;23.70;98.70;;;;;;5049151;28;20021;-77
2022/08/04 05:58:29;;;;;;;7.03;5.20;;;22.90;98.60;;;;;;5048743;28;20408;-77
2022/08/04 06:00:57;;;;;;;8.45;4.35;;;22.90;98.50;;;;;;5049144;28;20409;-77
2022/08/04 06:03:25;;;;;;;6.13;4.85;;;23.00;98.50;;;;;;5048934;28;20052;-77
2022/08/04 06:05:53;;;;;;;4.60;4.18;;;23.00;98.60;;;;;;5032942;28;20132;-77
2022/08/04 06:08:18;;;;;;;7.93;5.13;;;23.00;98.50;;;;;;5045623;28;20029;-77
2022/08/04 06:10:46;;;;;;;8.15;5.07;;;23.10;98.10;;;;;;5048119;28;20036;-78
2022/08/04 06:13:16;;;;;;;7.80;5.28;;;23.20;98.10;;;;;;5048741;28;20029;-77
2022/08/04 06:15:45;;;;;;;5.47;4.28;;;23.40;98.00;;;;;;5050474;28;20024;-77
2022/08/04 06:18:12;;;;;;;7.95;4.95;;;23.40;97.80;;;;;;5052877;28;20060;-77
2022/08/04 06:20:40;;;;;;;6.00;4.70;;;23.60;97.60;;;;;;5052395;28;20013;-77
2022/08/04 06:23:13;;;;;;;7.38;4.90;;;23.50;97.40;;;;;;5053394;28;20136;-78
2022/08/04 06:25:52;;;;;;;12.52;4.90;;;23.60;97.40;;;;;;5052613;28;20033;-78
2022/08/04 06:28:19;;;;;;;7.55;4.65;;;23.80;97.70;;;;;;5052538;28;20032;-76
2022/08/04 06:30:46;;;;;;;9.02;4.65;;;23.30;97.30;;;;;;5052573;28;20056;-77
2022/08/04 06:33:23;;;;;;;7.35;4.72;;;23.90;97.40;;;;;;5052586;28;20029;-77
2022/08/04 06:35:52;;;;;;;6.03;4.18;;;24.00;97.40;;;;;;5034016;28;20381;-77
2022/08/04 06:38:19;;;;;;;7.25;4.75;;;24.20;97.50;;;;;;5041854;28;20060;-78
2022/08/04 06:40:45;;;;;;;5.55;4.78;;;24.30;97.10;;;;;;5052107;28;20033;-77
2022/08/04 06:43:11;;;;;;;13.35;6.10;;;25.40;97.10;;;;;;5052725;28;20105;-77
2022/08/04 06:45:40;;;;;;;7.88;5.90;;;24.50;96.40;;;;;;5052730;28;20119;-77
2022/08/04 06:48:06;;;;;;;7.60;4.38;;;25.30;96.40;;;;;;5053097;28;20021;-77
2022/08/04 06:50:36;;;;;;;5.53;4.15;;;24.90;95.90;;;;;;5052473;28;20025;-77
2022/08/04 06:53:02;;;;;;;10.98;5.00;;;24.90;95.90;;;;;;5052562;28;20024;-77
2022/08/04 06:55:28;;;;;;;5.03;3.67;;;25.00;95.60;;;;;;5052164;28;20707;-77
2022/08/04 06:57:54;;;;;;;12.02;5.20;;;25.00;95.60;;;;;;5047497;28;20044;-77
2022/08/04 07:00:22;;;;;;;11.23;4.65;;;25.10;95.60;;;;;;5050028;28;20147;-77
2022/08/04 07:02:51;;;;;;;6.80;4.43;;;25.20;95.40;;;;;;5042931;28;20522;-77
2022/08/04 07:05:17;;;;;;;8.70;3.92;;;26.50;95.90;;;;;;5049671;28;20067;-77
2022/08/04 07:07:43;;;;;;;8.02;3.60;;;25.30;95.50;;;;;;5051158;28;20025;-77
2022/08/04 07:10:10;;;;;;;7.78;4.50;;;25.50;95.50;;;;;;5046212;28;20029;-77
2022/08/04 07:12:38;;;;;;;8.43;4.70;;;25.60;95.70;;;;;;5050778;28;20028;-78
2022/08/04 07:15:05;;;;;;;9.70;4.60;;;25.70;95.60;;;;;;5051409;28;20025;-77
2022/08/04 07:17:32;;;;;;;9.20;5.53;;;25.70;95.00;;;;;;5048580;28;20028;-77
2022/08/04 07:19:58;;;;;;;6.50;4.15;;;25.70;94.40;;;;;;5049759;28;20037;-77
2022/08/04 07:22:25;;;;;;;8.57;4.60;;;25.90;94.00;;;;;;5052042;28;20043;-77
2022/08/04 07:24:55;;;;;;;9.05;5.35;;;26.10;93.80;;;;;;5029271;28;20040;-77
2022/08/04 07:27:20;;;;;;;7.57;4.90;;;26.10;93.60;;;;;;5049840;28;20116;-77
2022/08/04 07:29:47;;;;;;;8.70;4.50;;;26.30;93.10;;;;;;5049192;28;20131;-78
2022/08/04 07:32:13;;;;;;;6.97;3.53;;;26.30;92.80;;;;;;5032305;28;20078;-77
2022/08/04 07:34:40;;;;;;;6.60;3.85;;;26.50;92.70;;;;;;5048995;28;20167;-77
2022/08/04 07:37:06;;;;;;;8.32;4.00;;;26.70;92.60;;;;;;5051031;28;20079;-77
2022/08/04 07:39:32;;;;;;;9.02;4.20;;;26.80;92.30;;;;;;5049090;28;20036;-78
2022/08/04 07:41:59;;;;;;;6.10;3.35;;;26.90;92.00;;;;;;5048739;28;20025;-78
2022/08/04 07:44:26;;;;;;;6.00;3.17;;;27.10;92.00;;;;;;5050661;28;20104;-78
2022/08/04 07:46:51;;;;;;;7.03;3.90;;;27.00;91.70;;;;;;5050044;28;20021;-77
2022/08/04 07:49:19;;;;;;;7.72;3.47;;;27.20;91.40;;;;;;5050418;28;20020;-77
2022/08/04 07:51:45;;;;;;;10.98;3.95;;;27.30;91.20;;;;;;5050805;28;20021;-78
2022/08/04 07:54:12;;;;;;;6.18;2.95;;;27.30;91.00;;;;;;5048970;28;20080;-78
2022/08/04 07:56:40;;;;;;;5.35;2.65;;;27.50;90.90;;;;;;5050333;28;20055;-77
2022/08/04 07:59:06;;;;;;;7.30;2.40;;;27.70;90.70;;;;;;5050125;28;20375;-77
2022/08/04 08:01:35;;;;;;;10.05;3.30;;;28.10;90.50;;;;;;5050226;28;20489;-77
2022/08/04 08:04:03;;;;;;;6.03;2.70;;;27.80;88.40;;;;;;5049523;28;20040;-77
2022/08/04 08:06:29;;;;;;;10.90;3.83;;;28.00;89.70;;;;;;5045316;28;20049;-77
2022/08/04 08:08:55;;;;;;;8.90;3.47;;;28.70;89.70;;;;;;5034968;28;20411;-77
2022/08/04 08:11:21;;;;;;;6.80;3.08;;;27.80;89.10;;;;;;5035990;28;20025;-77
2022/08/04 08:13:48;;;;;;;9.10;2.97;;;27.90;88.90;;;;;;5049794;28;20489;-77
2022/08/04 08:16:14;;;;;;;8.15;3.45;;;28.90;89.60;;;;;;5050454;28;20025;-77
2022/08/04 08:18:39;;;;;;;7.03;4.78;;;28.20;88.60;;;;;;5050249;28;20029;-77
2022/08/04 08:21:06;;;;;;;8.13;5.10;;;28.10;88.10;;;;;;5050367;28;20040;-77
2022/08/04 08:23:33;;;;;;;7.82;4.55;;;28.60;88.10;;;;;;5049997;28;20044;-77
2022/08/04 08:26:00;;;;;;;8.43;5.03;;;28.10;88.50;;;;;;5050328;28;20087;-77
2022/08/04 08:28:26;;;;;;;7.85;4.40;;;28.30;88.10;;;;;;5050315;28;20017;-77
2022/08/04 08:30:51;;;;;;;8.15;3.97;;;28.10;88.00;;;;;;5049768;28;20021;-77
2022/08/04 08:33:19;;;;;;;10.45;5.95;;;28.20;88.10;;;;;;5049561;28;20055;-77
2022/08/04 08:36:02;;;;;;;8.82;4.88;;;28.30;88.10;;;;;;5039609;28;20470;-77
2022/08/04 08:39:01;;;;;;;8.27;4.40;;;28.20;86.60;;;;;;5031602;28;20478;-77
2022/08/04 08:41:58;;;;;;;9.13;4.65;;;28.30;86.80;;;;;;5045278;28;20025;-77
2022/08/04 08:44:39;;;;;;;11.05;4.80;;;28.30;85.70;;;;;;5027869;28;20039;-78
2022/08/04 08:47:38;;;;;;;9.88;4.47;;;28.40;85.40;;;;;;5040488;28;20514;-77
2022/08/04 08:50:37;;;;;;;9.55;4.22;;;28.40;85.90;;;;;;5037458;28;20021;-77
2022/08/04 08:53:29;;;;;;;9.05;4.20;;;28.50;85.90;;;;;;5050289;28;20087;-78
2022/08/04 08:55:57;;;;;;;11.77;5.10;;;28.60;85.60;;;;;;5032162;28;20051;-77
2022/08/04 08:58:41;;;;;;;9.85;4.60;;;28.70;84.10;;;;;;5049009;28;20057;-77
2022/08/04 09:01:25;;;;;;;7.25;4.78;;;28.70;83.40;;;;;;5048950;28;20027;-77
2022/08/04 09:03:59;;;;;;;9.50;4.18;;;28.70;86.00;;;;;;5047224;28;20025;-76
2022/08/04 09:06:37;;;;;;;8.85;4.93;;;28.70;84.00;;;;;;5042103;28;20017;-77
2022/08/04 09:09:24;;;;;;;12.48;5.93;;;28.70;84.00;;;;;;5047794;28;20116;-76
2022/08/04 09:12:17;;;;;;;12.32;5.07;;;28.70;84.00;;;;;;5047368;28;20427;-77
2022/08/04 09:15:02;;;;;;;13.02;5.43;;;28.70;83.70;;;;;;5030131;28;20486;-78
2022/08/04 09:17:44;;;;;;;8.20;5.20;;;28.70;83.90;;;;;;5042295;28;20128;-77
2022/08/04 09:20:21;;;;;;;7.68;5.15;;;28.60;86.10;;;;;;5046529;28;20052;-77
2022/08/04 09:22:59;;;;;;;7.70;5.55;;;28.60;84.10;;;;;;5047699;28;20021;-77
2022/08/04 09:25:37;;;;;;;9.27;4.85;;;28.60;86.20;;;;;;5042866;28;20029;-77
2022/08/04 09:28:21;;;;;;;8.63;4.85;;;28.50;86.10;;;;;;5043408;28;20468;-77
2022/08/04 09:31:07;;;;;;;8.02;4.50;;;28.50;84.20;;;;;;5046867;28;20055;-77
2022/08/04 09:34:11;;;;;;;10.02;4.00;;;28.50;84.90;;;;;;5041337;28;20075;-77
2022/08/04 09:36:54;;;;;;;8.25;4.00;;;28.50;84.70;;;;;;5028881;28;20033;-77
2022/08/04 09:39:22;;;;;;;6.28;3.63;;;28.50;86.70;;;;;;5047652;28;20025;-77
2022/08/04 09:42:00;;;;;;;7.65;4.07;;;28.60;86.30;;;;;;5046140;28;20025;-77
2022/08/04 09:44:51;;;;;;;5.88;3.67;;;28.60;84.20;;;;;;5048087;28;20036;-77
2022/08/04 09:47:22;;;;;;;8.23;3.22;;;28.80;84.00;;;;;;5049132;28;20031;-76
2022/08/04 09:50:01;;;;;;;5.68;3.05;;;28.80;85.30;;;;;;5047627;28;20513;-78
2022/08/04 09:52:38;;;;;;;6.60;2.67;;;29.10;83.00;;;;;;5047335;28;20033;-77
2022/08/04 09:55:47;;;;;;;4.97;2.58;;;29.20;81.80;;;;;;5048230;28;20054;-76
2022/08/04 09:58:38;;;;;;;5.05;2.35;;;29.20;81.90;;;;;;5045469;28;20044;-76
2022/08/04 10:01:10;;;;;;;7.95;2.75;;;29.20;81.50;;;;;;5047803;28;20112;-76
2022/08/04 10:03:40;;;;;;;6.00;2.00;;;29.30;82.80;;;;;;5045921;28;20070;-76
2022/08/04 10:06:44;;;;;;;4.85;1.92;;;29.20;82.20;;;;;;5049078;28;20613;-76
2022/08/04 10:09:38;;;;;;;3.97;2.08;;;30.00;82.90;;;;;;5041171;28;20063;-76
2022/08/04 10:12:22;;;;;;;5.45;1.92;;;29.40;80.00;;;;;;5048413;28;20461;-77
2022/08/04 10:15:15;;;;;;;7.95;1.90;;;29.30;81.60;;;;;;5047523;28;20024;-76
2022/08/04 10:17:53;;;;;;;5.90;1.80;;;29.40;80.00;;;;;;5047396;28;20131;-77
2022/08/04 10:20:25;;;;;;;5.22;1.70;;;29.20;81.60;;;;;;5045017;28;20029;-76
2022/08/04 10:23:13;;;;;;;5.07;1.88;;;29.40;81.60;;;;;;5039084;28;20025;-77
2022/08/04 10:26:02;;;;;;;7.18;2.15;;;29.10;79.50;;;;;;5045709;28;20393;-77
2022/08/04 10:28:30;;;;;;;4.82;2.22;;;29.10;79.10;;;;;;5047945;28;20029;-76
2022/08/04 10:31:00;;;;;;;5.32;1.85;;;28.90;80.60;;;;;;5041715;28;20033;-75
2022/08/04 10:33:36;;;;;;;7.03;2.15;;;29.10;81.30;;;;;;5047720;28;20381;-76
2022/08/04 10:36:09;;;;;;;6.03;1.40;;;29.00;82.00;;;;;;5039304;28;20025;-75
2022/08/04 10:38:56;;;;;;;5.20;2.28;;;28.60;83.20;;;;;;5048321;28;20098;-76
2022/08/04 10:41:33;;;;;;;4.47;1.92;;;28.60;81.20;;;;;;5047856;28;20021;-76
2022/08/04 10:44:14;;;;;;;3.50;2.20;;;28.40;83.60;;;;;;5039567;28;20029;-76
2022/08/04 10:46:54;;;;;;;4.97;1.88;;;28.20;81.40;;;;;;5034994;28;20025;-76
2022/08/04 10:49:28;;;;;;;7.13;2.38;;;27.80;84.50;;;;;;5036190;28;20045;-76
2022/08/04 10:52:07;;;;;;;5.00;1.83;;;27.80;82.70;;;;;;5042419;28;20126;-75
2022/08/04 10:54:46;;;;;;;8.27;2.00;;;27.60;86.10;;;;;;5042521;28;20030;-76
2022/08/04 10:57:50;;;;;;;8.48;2.38;;;27.40;85.40;;;;;;5025068;28;20040;-75
2022/08/04 11:00:23;;;;;;;5.90;2.00;;;27.20;88.30;;;;;;5040095;28;20147;-77
2022/08/04 11:03:16;;;;;;;6.53;2.50;;;26.80;91.10;;;;;;5046249;28;20612;-77
2022/08/04 11:05:46;;;;;;;7.72;2.80;;;26.50;91.70;;;;;;5040948;28;20116;-78
2022/08/04 11:08:19;;;;;;;9.15;2.47;;;26.10;93.10;;;;;;5044106;28;20043;-78
2022/08/04 11:10:58;;;;;;;8.05;3.15;;;25.80;92.90;;;;;;5048534;28;20029;-80
2022/08/04 11:13:27;;;;;;;7.80;2.78;;;25.70;94.50;;;;;;5048645;28;20039;-80
2022/08/04 11:15:54;;;;;;;6.18;3.03;;;26.70;95.60;;;;;;5042413;28;20047;-80
2022/08/04 11:18:46;;;;;;;11.07;3.63;;;25.20;95.90;;;;;;5040865;28;20038;-80
2022/08/04 11:21:30;;;;;;;4.78;2.58;;;25.00;96.10;;;;;;5047544;28;20028;-80
2022/08/04 11:24:17;;;;;;;4.75;2.85;;;24.90;97.50;;;;;;5049748;28;20425;-81
2022/08/04 11:27:12;;;;;;;6.57;3.40;;;24.90;97.10;;;;;;5044480;28;20466;-80
2022/08/04 11:29:58;;;;;;;10.45;4.20;;;25.70;98.70;;;;;;5045010;28;20425;-81
2022/08/04 11:32:46;;;;;;;7.82;4.38;;;24.80;98.60;;;;;;5049540;28;20115;-81
2022/08/04 11:35:26;;;;;;;5.60;3.15;;;24.90;98.20;;;;;;5050294;28;20071;-81
2022/08/04 11:38:03;;;;;;;10.18;3.92;;;24.70;99.30;;;;;;5051215;28;20017;-80
2022/08/04 11:40:39;;;;;;;8.80;2.95;;;24.60;99.30;;;;;;5051307;28;20029;-82
2022/08/04 11:43:11;;;;;;;5.03;2.55;;;24.70;99.20;;;;;;5046126;28;20040;-80
2022/08/04 11:46:02;;;;;;;4.95;2.65;;;24.80;99.10;;;;;;5049745;28;20047;-81
2022/08/04 11:48:43;;;;;;;4.45;2.63;;;24.90;99.00;;;;;;5042793;28;20044;-81
2022/08/04 11:51:09;;;;;;;8.02;2.40;;;24.90;99.00;;;;;;5050584;28;20362;-81
2022/08/04 11:53:38;;;;;;;6.78;3.47;;;24.90;98.20;;;;;;5049032;28;20024;-81
2022/08/04 11:56:07;;;;;;;5.47;2.50;;;25.20;98.50;;;;;;5050807;28;20032;-81
2022/08/04 11:58:32;;;;;;;7.47;2.75;;;25.10;98.20;;;;;;5047364;28;20051;-81
2022/08/04 12:01:26;;;;;;;5.85;2.90;;;25.00;97.80;;;;;;5049790;28;20045;-80
2022/08/04 12:04:10;;;;;;;5.47;2.58;;;25.20;97.50;;;;;;5039265;28;20350;-81
2022/08/04 12:06:47;;;;;;;11.20;2.97;;;26.00;98.50;;;;;;5050349;28;20481;-81
2022/08/04 12:09:40;;;;;;;6.18;2.85;;;25.20;97.90;;;;;;5049714;28;20025;-81
2022/08/04 12:12:26;;;;;;;5.53;2.83;;;25.30;97.90;;;;;;5049945;28;20036;-79
2022/08/04 12:15:04;;;;;;;4.38;3.13;;;25.30;97.80;;;;;;5030511;28;20025;-79
2022/08/04 12:18:01;;;;;;;4.53;2.38;;;25.30;96.70;;;;;;5049949;28;20478;-79
2022/08/04 12:20:30;;;;;;;6.32;2.60;;;25.30;97.10;;;;;;5028072;28;20040;-80
2022/08/04 12:22:56;;;;;;;5.25;2.88;;;25.40;97.40;;;;;;5049579;28;20029;-79
2022/08/04 12:25:35;;;;;;;4.13;2.63;;;25.80;97.00;;;;;;5040644;28;20048;-79
2022/08/04 12:28:10;;;;;;;7.95;3.15;;;25.70;97.40;;;;;;5048322;28;20033;-79
2022/08/04 12:30:42;;;;;;;7.03;3.10;;;25.70;97.20;;;;;;5049035;28;20049;-80
2022/08/04 12:33:22;;;;;;;5.03;2.38;;;25.60;97.00;;;;;;5045115;28;20099;-79
2022/08/04 12:36:00;;;;;;;3.63;2.88;;;25.80;96.30;;;;;;5045664;28;20099;-79
2022/08/04 12:38:31;;;;;;;3.75;3.03;;;25.90;96.80;;;;;;5040788;28;20033;-79
2022/08/04 12:40:59;;;;;;;3.53;2.67;;;25.90;96.50;;;;;;5044425;28;20025;-80
2022/08/04 12:43:40;;;;;;;6.00;2.72;;;26.00;96.20;;;;;;5043236;28;20403;-79
2022/08/04 12:46:16;;;;;;;4.50;2.70;;;26.00;96.30;;;;;;5047997;28;20036;-80
2022/08/04 12:48:45;;;;;;;2.95;2.35;;;25.90;96.00;;;;;;5047620;28;20128;-79
2022/08/04 12:51:12;;;;;;;5.13;2.78;;;25.90;96.10;;;;;;5048097;28;20029;-79
2022/08/04 12:53:42;;;;;;;2.72;2.30;;;25.80;96.00;;;;;;5049138;28;20017;-78
2022/08/04 12:56:10;;;;;;;4.85;2.90;;;25.80;96.10;;;;;;5045059;28;20113;-79
2022/08/04 12:58:42;;;;;;;7.57;3.10;;;26.00;95.50;;;;;;5044109;28;20029;-80
2022/08/04 13:01:15;;;;;;;4.95;2.83;;;26.10;95.50;;;;;;5041284;28;20033;-81
2022/08/04 13:03:51;;;;;;;3.67;2.50;;;26.70;95.40;;;;;;5043956;28;20025;-83
2022/08/04 13:06:25;;;;;;;3.95;2.83;;;25.90;95.30;;;;;;5029643;28;20119;-78
2022/08/04 13:08:53;;;;;;;6.78;2.58;;;26.20;95.20;;;;;;5041373;28;20032;-78
2022/08/04 13:11:21;;;;;;;5.40;2.88;;;26.10;95.10;;;;;;5048941;28;20659;-78
2022/08/04 13:13:52;;;;;;;3.20;2.42;;;26.30;95.00;;;;;;5049004;28;20059;-83
2022/08/04 13:16:27;;;;;;;6.78;3.20;;;26.90;95.30;;;;;;5049363;28;20025;-80
2022/08/04 13:18:53;;;;;;;6.32;3.30;;;26.40;94.60;;;;;;5047465;28;20091;-81
2022/08/04 13:21:20;;;;;;;8.77;2.75;;;27.20;94.60;;;;;;5040456;28;20042;-78
2022/08/04 13:23:48;;;;;;;6.35;3.63;;;26.90;94.30;;;;;;5046503;28;20072;-80
2022/08/04 13:26:16;;;;;;;5.03;3.17;;;26.70;94.00;;;;;;5048763;28;20107;-77
2022/08/04 13:28:47;;;;;;;7.88;3.30;;;26.90;93.70;;;;;;5044272;28;20558;-79
2022/08/04 13:31:18;;;;;;;4.72;2.60;;;26.90;93.30;;;;;;5047905;28;20051;-78
2022/08/04 13:33:47;;;;;;;4.15;2.83;;;26.90;93.10;;;;;;5048934;28;20029;-78
2022/08/04 13:36:14;;;;;;;4.63;2.80;;;27.00;92.60;;;;;;5048808;28;20025;-78